createdAt,value
2022-12-28T00:02:19.380Z,101608.13
2022-12-28T00:05:21.964Z,101602.88
2022-12-28T00:08:24.346Z,101610.09
2022-12-28T00:11:30.721Z,101647.88
2022-12-28T00:14:33.743Z,101608.84
2022-12-28T00:17:36.189Z,101645.56
2022-12-28T00:20:38.561Z,101654.75
2022-12-28T00:23:40.995Z,101657.38
2022-12-28T00:26:43.322Z,101652.78
2022-12-28T00:29:46.494Z,101626.91
2022-12-28T00:32:48.931Z,101662.91
2022-12-28T00:35:58.953Z,101644.59
2022-12-28T00:39:01.677Z,101662.50
2022-12-28T00:42:04.243Z,101668.28
2022-12-28T00:45:07.099Z,101632.06
2022-12-28T00:48:09.484Z,101661.19
2022-12-28T00:51:16.506Z,101667.88
2022-12-28T00:54:18.863Z,101673.03
2022-12-28T00:57:22.433Z,101677.59
2022-12-28T01:00:25.005Z,101671.13
2022-12-28T01:03:27.649Z,101683.81
2022-12-28T01:06:30.811Z,101680.28
2022-12-28T01:09:33.269Z,101679.28
2022-12-28T01:12:38.455Z,101674.84
2022-12-28T01:15:41.095Z,101681.66
2022-12-28T01:18:45.016Z,101648.13
2022-12-28T01:21:49.472Z,101632.41
2022-12-28T01:24:52.376Z,101672.78
2022-12-28T01:27:54.769Z,101662.75
2022-12-28T01:30:57.268Z,101619.75
2022-12-28T01:34:00.041Z,101658.47
2022-12-28T01:37:02.533Z,101625.81
2022-12-28T01:40:05.495Z,101650.06
2022-12-28T01:43:14.472Z,101649.28
2022-12-28T01:47:01.491Z,101664.63
2022-12-28T01:50:15.721Z,101659.03
2022-12-28T01:53:20.609Z,101624.69
2022-12-28T01:56:23.402Z,101628.88
2022-12-28T01:59:31.419Z,101648.94
2022-12-28T02:02:35.401Z,101639.88
2022-12-28T02:05:45.605Z,101665.81
2022-12-28T02:09:01.825Z,101665.94
2022-12-28T02:12:07.098Z,101673.06
2022-12-28T02:15:09.978Z,101640.00
2022-12-28T02:18:14.693Z,101650.28
2022-12-28T02:21:25.982Z,101680.56
2022-12-28T02:25:12.035Z,101680.19
2022-12-28T02:28:48.814Z,101678.63
2022-12-28T02:32:09.636Z,101642.91
2022-12-28T02:35:19.508Z,101684.16
2022-12-28T02:38:39.869Z,101681.09
2022-12-28T02:41:45.260Z,101652.84
2022-12-28T02:45:06.864Z,101632.13
2022-12-28T02:48:27.612Z,101671.91
2022-12-28T02:52:01.569Z,101673.13
2022-12-28T02:55:26.006Z,101632.91
2022-12-28T02:58:43.419Z,101677.13
2022-12-28T03:01:54.598Z,101672.53
2022-12-28T03:05:12.068Z,101663.16
2022-12-28T03:08:25.661Z,101617.34
2022-12-28T03:11:59.366Z,101659.56
2022-12-28T03:15:08.660Z,101654.28
2022-12-28T03:18:33.771Z,101637.75
2022-12-28T03:21:55.935Z,101658.91
2022-12-28T03:25:21.409Z,101659.91
2022-12-28T03:28:48.377Z,101659.75
2022-12-28T03:31:51.069Z,101640.00
2022-12-28T03:34:53.728Z,101597.50
2022-12-28T03:38:02.142Z,101638.00
2022-12-28T03:41:13.646Z,101652.03
2022-12-28T03:44:33.982Z,101628.75
2022-12-28T03:47:38.820Z,101584.66
2022-12-28T03:50:44.314Z,101614.16
2022-12-28T03:53:49.319Z,101649.44
2022-12-28T03:56:54.830Z,101653.31
2022-12-28T04:00:02.738Z,101648.91
2022-12-28T04:03:07.352Z,101616.91
2022-12-28T04:06:16.681Z,101640.09
2022-12-28T04:09:19.698Z,101651.56
2022-12-28T04:12:23.406Z,101618.34
2022-12-28T04:15:44.430Z,101634.75
2022-12-28T04:18:47.434Z,101612.97
2022-12-28T04:21:50.001Z,101644.69
2022-12-28T04:24:52.462Z,101644.13
2022-12-28T04:27:57.957Z,101614.75
2022-12-28T04:31:22.895Z,101653.72
2022-12-28T04:34:32.378Z,101620.88
2022-12-28T04:37:41.994Z,101612.63
2022-12-28T04:40:44.603Z,101600.69
2022-12-28T04:43:47.012Z,101636.16
2022-12-28T04:46:49.441Z,101599.41
2022-12-28T04:49:51.834Z,101616.06
2022-12-28T04:52:54.710Z,101640.03
2022-12-28T04:55:59.325Z,101621.56
2022-12-28T04:59:01.832Z,101633.78
2022-12-28T05:02:04.290Z,101635.50
2022-12-28T05:05:07.393Z,101638.69
2022-12-28T05:08:09.767Z,101564.53
2022-12-28T05:11:14.923Z,101598.38
2022-12-28T05:14:17.278Z,101624.91
2022-12-28T05:17:19.696Z,101633.25
2022-12-28T05:20:22.341Z,101625.22
2022-12-28T05:23:24.734Z,101579.94
2022-12-28T05:26:29.479Z,101593.50
2022-12-28T05:29:31.957Z,101626.16
2022-12-28T05:32:34.356Z,101601.13
2022-12-28T05:35:36.717Z,101621.00
2022-12-28T05:38:39.616Z,101596.72
2022-12-28T05:41:42.061Z,101612.19
2022-12-28T05:44:44.445Z,101613.81
2022-12-28T05:47:46.869Z,101598.22
2022-12-28T05:50:49.301Z,101645.97
2022-12-28T05:53:51.837Z,101624.06
2022-12-28T05:56:54.244Z,101633.16
2022-12-28T05:59:56.821Z,101588.06
2022-12-28T06:02:59.273Z,101609.34
2022-12-28T06:06:07.329Z,101603.44
2022-12-28T06:09:10.335Z,101608.13
2022-12-28T06:12:12.737Z,101622.41
2022-12-28T06:18:17.693Z,101607.28
2022-12-28T06:21:26.813Z,101588.66
2022-12-28T06:24:29.249Z,101620.16
2022-12-28T06:27:31.647Z,101630.81
2022-12-28T06:30:34.372Z,101640.59
2022-12-28T06:33:36.759Z,101646.81
2022-12-28T06:36:42.523Z,101616.47
2022-12-28T06:39:44.985Z,101574.84
2022-12-28T06:42:47.387Z,101649.16
2022-12-28T06:45:56.970Z,101614.03
2022-12-28T06:48:59.529Z,101661.50
2022-12-28T06:52:01.901Z,101670.63
2022-12-28T06:55:04.556Z,101663.19
2022-12-28T06:58:07.065Z,101640.16
2022-12-28T07:01:17.239Z,101669.44
2022-12-28T07:04:20.029Z,101677.72
2022-12-28T07:07:22.462Z,101631.69
2022-12-28T07:10:24.832Z,101668.13
2022-12-28T07:13:28.390Z,101648.44
2022-12-28T07:19:32.661Z,101691.53
2022-12-28T07:22:35.321Z,101691.03
2022-12-28T07:25:37.750Z,101621.97
2022-12-28T07:28:42.032Z,101646.78
2022-12-28T07:31:45.940Z,101684.97
2022-12-28T07:34:48.775Z,101683.03
2022-12-28T07:37:51.247Z,101681.53
2022-12-28T07:40:53.660Z,101672.38
2022-12-28T07:43:56.323Z,101703.09
2022-12-28T07:46:58.641Z,101701.16
2022-12-28T07:50:01.000Z,101695.38
2022-12-28T07:53:03.426Z,101696.31
2022-12-28T07:56:06.999Z,101705.78
2022-12-28T07:59:13.395Z,101691.19
2022-12-28T08:02:16.100Z,101693.72
2022-12-28T08:05:18.559Z,101667.81
2022-12-28T08:08:21.627Z,101684.66
2022-12-28T08:11:26.272Z,101677.31
2022-12-28T08:14:30.727Z,101653.16
2022-12-28T08:17:33.144Z,101664.34
2022-12-28T08:20:37.832Z,101640.59
2022-12-28T08:23:40.443Z,101652.31
2022-12-28T08:26:44.271Z,101656.19
2022-12-28T08:29:46.917Z,101634.06
2022-12-28T08:32:50.097Z,101656.16
2022-12-28T08:35:52.528Z,101647.06
2022-12-28T08:38:55.187Z,101656.16
2022-12-28T08:41:57.694Z,101653.16
2022-12-28T08:45:00.321Z,101645.41
2022-12-28T08:48:02.697Z,101639.03
2022-12-28T08:51:10.551Z,101636.50
2022-12-28T08:54:16.168Z,101614.97
2022-12-28T08:57:18.626Z,101671.97
2022-12-28T09:00:21.109Z,101672.63
2022-12-28T09:03:23.568Z,101668.94
2022-12-28T09:06:29.945Z,101675.66
2022-12-28T09:09:32.592Z,101677.09
2022-12-28T09:12:35.313Z,101682.53
2022-12-28T09:15:37.729Z,101682.97
2022-12-28T09:18:42.011Z,101658.59
2022-12-28T09:21:45.367Z,101653.91
2022-12-28T09:24:47.780Z,101653.78
2022-12-28T09:27:53.406Z,101672.50
2022-12-28T09:30:58.869Z,101641.34
2022-12-28T09:37:23.937Z,101639.06
2022-12-28T09:40:26.324Z,101612.19
2022-12-28T09:43:29.404Z,101639.31
2022-12-28T09:46:33.729Z,101633.28
2022-12-28T09:49:44.197Z,101634.91
2022-12-28T09:52:59.761Z,101649.66
2022-12-28T09:56:37.025Z,101658.69
2022-12-28T09:59:39.951Z,101635.59
2022-12-28T10:02:48.123Z,101633.19
2022-12-28T10:05:52.003Z,101639.03
2022-12-28T10:08:58.736Z,101630.34
2022-12-28T10:12:13.995Z,101639.84
2022-12-28T10:15:17.464Z,101627.81
2022-12-28T10:18:27.084Z,101641.28
2022-12-28T10:21:33.366Z,101643.00
2022-12-28T10:24:36.425Z,101632.59
2022-12-28T10:27:38.794Z,101600.28
2022-12-28T10:30:47.220Z,101622.97
2022-12-28T10:33:53.727Z,101615.53
2022-12-28T10:36:58.440Z,101619.84
2022-12-28T10:40:22.739Z,101596.31
2022-12-28T10:43:29.388Z,101601.91
2022-12-28T10:46:31.826Z,101576.22
2022-12-28T10:49:36.871Z,101613.69
2022-12-28T10:52:39.635Z,101613.50
2022-12-28T10:55:42.404Z,101602.50
2022-12-28T10:58:46.484Z,101575.47
2022-12-28T11:01:49.136Z,101585.22
2022-12-28T11:05:03.406Z,101550.81
2022-12-28T11:08:06.794Z,101602.84
2022-12-28T11:11:23.091Z,101573.56
2022-12-28T11:14:38.022Z,101568.66
2022-12-28T11:17:40.532Z,101558.44
2022-12-28T11:20:45.651Z,101553.16
2022-12-28T11:23:50.386Z,101551.19
2022-12-28T11:26:53.436Z,101570.75
2022-12-28T11:29:56.098Z,101542.94
2022-12-28T11:33:00.957Z,101576.19
2022-12-28T11:36:08.415Z,101544.00
2022-12-28T11:39:27.471Z,101573.63
2022-12-28T11:42:41.033Z,101569.25
2022-12-28T11:45:57.570Z,101529.06
2022-12-28T11:49:24.709Z,101557.41
2022-12-28T11:52:34.279Z,101525.31
2022-12-28T11:55:41.803Z,101551.03
2022-12-28T11:59:01.588Z,101496.00
2022-12-28T12:02:23.951Z,101543.00
2022-12-28T12:05:38.648Z,101549.19
2022-12-28T12:08:41.885Z,101521.63
2022-12-28T12:11:45.530Z,101548.22
2022-12-28T12:15:13.150Z,101544.94
2022-12-28T12:18:23.094Z,101542.91
2022-12-28T12:21:38.024Z,101536.63
2022-12-28T12:24:54.379Z,101486.75
2022-12-28T12:28:01.075Z,101529.00
2022-12-28T12:31:09.071Z,101504.47
2022-12-28T12:34:27.609Z,101518.44
2022-12-28T12:37:37.254Z,101519.72
2022-12-28T12:40:55.328Z,101510.03
2022-12-28T12:44:25.281Z,101480.94
2022-12-28T12:47:42.757Z,101506.38
2022-12-28T12:50:58.533Z,101492.06
2022-12-28T12:54:19.829Z,101492.16
2022-12-28T12:57:45.266Z,101491.28
2022-12-28T13:01:45.103Z,101481.03
2022-12-28T13:04:47.792Z,101482.75
2022-12-28T13:07:50.806Z,101466.44
2022-12-28T13:10:55.134Z,101430.44
2022-12-28T13:13:57.656Z,101447.59
2022-12-28T13:17:00.938Z,101452.75
2022-12-28T13:20:21.409Z,101439.03
2022-12-28T13:23:24.796Z,101441.59
2022-12-28T13:26:29.550Z,101452.75
2022-12-28T13:29:38.472Z,101472.44
2022-12-28T13:32:51.295Z,101471.59
2022-12-28T13:36:10.078Z,101464.72
2022-12-28T13:39:13.910Z,101462.16
2022-12-28T13:42:18.994Z,101435.59
2022-12-28T13:45:22.980Z,101440.75
2022-12-28T13:48:26.821Z,101434.75
2022-12-28T13:51:29.355Z,101452.72
2022-12-28T13:54:32.057Z,101443.31
2022-12-28T13:57:46.703Z,101457.03
2022-12-28T14:00:53.630Z,101453.56
2022-12-28T14:04:33.742Z,101455.28
2022-12-28T14:07:28.785Z,101395.31
2022-12-28T14:10:31.441Z,101430.41
2022-12-28T14:13:35.722Z,101440.69
2022-12-28T14:16:39.256Z,101435.53
2022-12-28T14:19:43.063Z,101446.63
2022-12-28T14:22:45.691Z,101439.75
2022-12-28T14:25:48.765Z,101442.34
2022-12-28T14:28:54.625Z,101426.91
2022-12-28T14:32:02.754Z,101414.03
2022-12-28T14:35:05.690Z,101433.72
2022-12-28T14:38:18.492Z,101419.13
2022-12-28T14:41:34.586Z,101436.28
2022-12-28T14:44:40.751Z,101405.34
2022-12-28T14:47:47.885Z,101439.63
2022-12-28T14:51:23.596Z,101436.16
2022-12-28T14:54:26.892Z,101432.72
2022-12-28T14:57:39.974Z,101398.41
2022-12-28T15:00:58.917Z,101412.94
2022-12-28T15:04:02.395Z,101421.53
2022-12-28T15:07:06.995Z,101383.03
2022-12-28T15:10:09.721Z,101413.88
2022-12-28T15:13:12.466Z,101411.31
2022-12-28T15:16:18.550Z,101392.44
2022-12-28T15:19:20.896Z,101415.50
2022-12-28T15:22:23.966Z,101420.72
2022-12-28T15:25:26.413Z,101417.28
2022-12-28T15:28:28.726Z,101411.28
2022-12-28T15:31:31.312Z,101383.78
2022-12-28T15:34:33.791Z,101402.59
2022-12-28T15:37:36.186Z,101396.50
2022-12-28T15:40:41.533Z,101395.66
2022-12-28T15:43:43.999Z,101410.22
2022-12-28T15:46:47.641Z,101392.22
2022-12-28T15:49:50.031Z,101402.53
2022-12-28T15:52:52.412Z,101409.41
2022-12-28T15:56:01.410Z,101414.50
2022-12-28T15:59:06.273Z,101417.09
2022-12-28T16:02:11.358Z,101412.00
2022-12-28T16:05:14.599Z,101381.97
2022-12-28T16:08:16.996Z,101406.81
2022-12-28T16:11:20.586Z,101409.19
2022-12-28T16:14:23.194Z,101416.03
2022-12-28T16:17:26.169Z,101404.06
2022-12-28T16:20:29.808Z,101407.47
2022-12-28T16:23:38.158Z,101391.97
2022-12-28T16:26:40.604Z,101404.72
2022-12-28T16:29:45.876Z,101427.91
2022-12-28T16:32:48.948Z,101390.91
2022-12-28T16:35:56.045Z,101421.72
2022-12-28T16:39:04.384Z,101411.31
2022-12-28T16:42:07.357Z,101420.78
2022-12-28T16:45:09.998Z,101423.09
2022-12-28T16:48:14.718Z,101395.53
2022-12-28T16:51:17.159Z,101430.56
2022-12-28T16:54:22.604Z,101411.63
2022-12-28T16:57:25.016Z,101385.16
2022-12-28T17:00:27.471Z,101411.84
2022-12-28T17:03:29.950Z,101417.84
2022-12-28T17:06:32.346Z,101414.47
2022-12-28T17:09:35.338Z,101413.53
2022-12-28T17:12:37.733Z,101416.81
2022-12-28T17:15:40.949Z,101385.09
2022-12-28T17:18:43.451Z,101403.84
2022-12-28T17:21:45.783Z,101389.13
2022-12-28T17:24:48.201Z,101379.47
2022-12-28T17:27:50.749Z,101388.03
2022-12-28T17:31:09.207Z,101383.69
2022-12-28T17:34:11.641Z,101384.31
2022-12-28T17:37:14.048Z,101403.78
2022-12-28T17:40:16.429Z,101376.28
2022-12-28T17:43:19.805Z,101415.22
2022-12-28T17:46:23.652Z,101382.59
2022-12-28T17:49:27.472Z,101388.59
2022-12-28T17:52:29.844Z,101385.00
2022-12-28T17:55:34.808Z,101351.47
2022-12-28T17:58:37.533Z,101377.47
2022-12-28T18:01:40.031Z,101377.16
2022-12-28T18:04:42.502Z,101383.56
2022-12-28T18:07:44.937Z,101357.41
2022-12-28T18:10:47.847Z,101395.59
2022-12-28T18:13:50.440Z,101400.84
2022-12-28T18:16:53.890Z,101382.97
2022-12-28T18:19:56.433Z,101415.81
2022-12-28T18:22:58.920Z,101401.38
2022-12-28T18:26:10.126Z,101409.88
2022-12-28T18:29:12.571Z,101378.16
2022-12-28T18:32:14.982Z,101393.28
2022-12-28T18:35:17.488Z,101412.91
2022-12-28T18:38:20.150Z,101407.66
2022-12-28T18:41:22.893Z,101401.34
2022-12-28T18:44:25.410Z,101418.41
2022-12-28T18:47:32.898Z,101415.72
2022-12-28T18:50:35.383Z,101407.78
2022-12-28T18:53:38.385Z,101402.94
2022-12-28T18:56:41.084Z,101417.56
2022-12-28T18:59:43.808Z,101350.63
2022-12-28T19:02:51.055Z,101422.75
2022-12-28T19:06:03.085Z,101402.25
2022-12-28T19:09:07.444Z,101354.94
2022-12-28T19:12:10.023Z,101342.31
2022-12-28T19:15:13.134Z,101394.84
2022-12-28T19:18:15.526Z,101406.72
2022-12-28T19:21:44.378Z,101405.00
2022-12-28T19:24:47.981Z,101380.75
2022-12-28T19:27:50.859Z,101377.16
2022-12-28T19:30:53.252Z,101409.88
2022-12-28T19:33:55.838Z,101410.81
2022-12-28T19:36:58.209Z,101380.69
2022-12-28T19:40:00.720Z,101408.09
2022-12-28T19:43:03.547Z,101382.81
2022-12-28T19:46:18.135Z,101391.56
2022-12-28T19:49:20.798Z,101385.44
2022-12-28T19:52:23.258Z,101357.00
2022-12-28T19:55:25.585Z,101346.09
2022-12-28T19:58:28.189Z,101354.50
2022-12-28T20:01:30.676Z,101389.59
2022-12-28T20:04:33.097Z,101377.59
2022-12-28T20:07:39.412Z,101317.16
2022-12-28T20:10:41.852Z,101373.16
2022-12-28T20:13:49.493Z,101370.72
2022-12-28T20:16:51.921Z,101380.41
2022-12-28T20:19:54.273Z,101385.34
2022-12-28T20:22:56.763Z,101386.25
2022-12-28T20:25:59.200Z,101386.66
2022-12-28T20:29:02.933Z,101385.78
2022-12-28T20:32:05.590Z,101372.66
2022-12-28T20:35:08.217Z,101365.94
2022-12-28T20:38:13.285Z,101368.31
2022-12-28T20:41:40.149Z,101363.84
2022-12-28T20:44:42.566Z,101361.91
2022-12-28T20:47:44.998Z,101332.47
2022-12-28T20:50:50.735Z,101369.25
2022-12-28T20:53:53.429Z,101366.47
2022-12-28T20:56:57.119Z,101362.25
2022-12-28T20:59:59.665Z,101332.81
2022-12-28T21:03:02.041Z,101332.59
2022-12-28T21:06:05.238Z,101336.19
2022-12-28T21:09:07.824Z,101375.78
2022-12-28T21:12:10.210Z,101342.22
2022-12-28T21:15:12.581Z,101357.50
2022-12-28T21:18:15.182Z,101329.19
2022-12-28T21:21:21.911Z,101345.16
2022-12-28T21:24:24.468Z,101348.91
2022-12-28T21:27:26.882Z,101314.41
2022-12-28T21:30:29.387Z,101310.19
2022-12-28T21:33:33.110Z,101320.47
2022-12-28T21:36:35.647Z,101318.81
2022-12-28T21:39:38.293Z,101341.97
2022-12-28T21:42:40.772Z,101330.81
2022-12-28T21:45:43.169Z,101329.00
2022-12-28T21:48:45.912Z,101332.31
2022-12-28T21:51:48.719Z,101287.56
2022-12-28T21:54:51.180Z,101294.56
2022-12-28T21:57:54.174Z,101304.91
2022-12-28T22:01:16.254Z,101321.13
2022-12-28T22:04:39.728Z,101318.50
2022-12-28T22:07:42.110Z,101288.34
2022-12-28T22:11:02.845Z,101314.25
2022-12-28T22:14:06.479Z,101267.16
2022-12-28T22:17:14.042Z,101276.66
2022-12-28T22:20:17.067Z,101296.41
2022-12-28T22:23:19.420Z,101302.53
2022-12-28T22:26:23.030Z,101301.22
2022-12-28T22:29:25.827Z,101298.38
2022-12-28T22:32:28.445Z,101289.78
2022-12-28T22:35:30.841Z,101265.69
2022-12-28T22:38:33.221Z,101294.06
2022-12-28T22:41:35.687Z,101257.56
2022-12-28T22:44:38.357Z,101239.13
2022-12-28T22:47:40.810Z,101258.53
2022-12-28T22:50:43.447Z,101241.97
2022-12-28T22:53:46.137Z,101240.34
2022-12-28T22:56:48.593Z,101284.09
2022-12-28T22:59:51.382Z,101248.09
2022-12-28T23:02:53.829Z,101248.00
2022-12-28T23:05:56.527Z,101265.94
2022-12-28T23:08:59.242Z,101246.16
2022-12-28T23:12:02.265Z,101253.09
2022-12-28T23:15:19.070Z,101244.06
2022-12-28T23:18:40.628Z,101235.38
2022-12-28T23:22:01.231Z,101258.69
2022-12-28T23:25:22.560Z,101256.19
2022-12-28T23:28:25.700Z,101226.88
2022-12-28T23:31:28.178Z,101265.59
2022-12-28T23:34:30.878Z,101258.69
2022-12-28T23:37:33.344Z,101228.59
2022-12-28T23:40:41.563Z,101259.53
2022-12-28T23:43:43.902Z,101260.16
2022-12-28T23:46:47.482Z,101255.97
2022-12-28T23:49:50.176Z,101238.50
2022-12-28T23:52:52.612Z,101219.84
2022-12-28T23:55:58.183Z,101261.84
2022-12-28T23:59:00.639Z,101218.09
